createdAt,value
2018-12-16T00:00:31.201Z,22.50
2018-12-16T00:01:31.287Z,23.80
2018-12-16T00:02:31.374Z,23.70
2018-12-16T00:03:31.461Z,22.20
2018-12-16T00:04:31.548Z,23.20
2018-12-16T00:05:31.634Z,22.90
2018-12-16T00:06:31.722Z,24.00
2018-12-16T00:07:31.808Z,22.50
2018-12-16T00:08:31.893Z,21.60
2018-12-16T00:09:31.978Z,21.20
2018-12-16T00:10:32.062Z,21.00
2018-12-16T00:11:32.149Z,20.80
2018-12-16T00:12:32.238Z,22.20
2018-12-16T00:13:32.318Z,20.40
2018-12-16T00:14:32.403Z,19.50
2018-12-16T00:15:32.488Z,21.80
2018-12-16T00:16:32.575Z,20.60
2018-12-16T00:17:32.659Z,17.40
2018-12-16T00:18:32.747Z,21.40
2018-12-16T00:19:32.835Z,20.00
2018-12-16T00:20:32.918Z,18.10
2018-12-16T00:21:33.002Z,20.10
2018-12-16T00:22:33.086Z,21.50
2018-12-16T00:23:33.178Z,24.00
2018-12-16T00:24:33.261Z,20.00
2018-12-16T00:25:33.345Z,19.70
2018-12-16T00:26:33.428Z,18.20
2018-12-16T00:27:33.514Z,20.20
2018-12-16T00:28:33.597Z,20.00
2018-12-16T00:29:33.683Z,19.70
2018-12-16T00:30:33.769Z,20.40
2018-12-16T00:31:33.853Z,21.50
2018-12-16T00:32:33.939Z,19.40
2018-12-16T00:33:34.024Z,21.10
2018-12-16T00:34:34.111Z,21.30
2018-12-16T00:35:34.207Z,20.60
2018-12-16T00:36:34.289Z,21.30
2018-12-16T00:37:34.374Z,20.10
2018-12-16T00:38:34.461Z,18.50
2018-12-16T00:39:34.543Z,21.10
2018-12-16T00:40:34.626Z,21.10
2018-12-16T00:41:34.716Z,20.30
2018-12-16T00:42:34.803Z,19.20
2018-12-16T00:43:34.889Z,19.40
2018-12-16T00:44:34.977Z,20.50
2018-12-16T00:45:35.059Z,19.40
2018-12-16T00:46:35.145Z,20.40
2018-12-16T00:47:35.230Z,18.10
2018-12-16T00:48:35.315Z,19.30
2018-12-16T00:49:35.403Z,19.20
2018-12-16T00:50:35.486Z,19.50
2018-12-16T00:51:35.567Z,19.30
2018-12-16T00:52:36.611Z,19.10
2018-12-16T00:53:35.747Z,19.90
2018-12-16T00:54:35.826Z,20.40
2018-12-16T00:55:35.910Z,19.50
2018-12-16T00:56:35.999Z,19.30
2018-12-16T00:57:36.081Z,18.50
2018-12-16T00:58:36.169Z,20.10
2018-12-16T00:59:36.256Z,19.20
2018-12-16T01:00:36.339Z,21.00
2018-12-16T01:01:36.430Z,20.00
2018-12-16T01:02:36.514Z,20.30
2018-12-16T01:03:36.593Z,20.20
2018-12-16T01:04:36.683Z,19.40
2018-12-16T01:05:36.779Z,20.00
2018-12-16T01:06:36.860Z,19.90
2018-12-16T01:07:36.944Z,18.30
2018-12-16T01:08:37.032Z,16.40
2018-12-16T01:09:37.119Z,20.80
2018-12-16T01:10:37.200Z,18.90
2018-12-16T01:11:37.293Z,18.70
2018-12-16T01:12:37.376Z,19.70
2018-12-16T01:13:37.461Z,22.10
2018-12-16T01:14:37.543Z,20.10
2018-12-16T01:15:37.633Z,19.10
2018-12-16T01:16:37.718Z,22.20
2018-12-16T01:17:37.796Z,20.20
2018-12-16T01:18:37.876Z,22.50
2018-12-16T01:19:37.961Z,20.20
2018-12-16T01:20:38.047Z,19.40
2018-12-16T01:21:38.122Z,19.70
2018-12-16T01:22:43.377Z,20.70
2018-12-16T01:23:38.294Z,21.90
2018-12-16T01:24:38.379Z,19.70
2018-12-16T01:25:38.464Z,20.10
2018-12-16T01:26:38.550Z,21.40
2018-12-16T01:27:38.627Z,19.40
2018-12-16T01:28:38.711Z,19.90
2018-12-16T01:29:38.798Z,21.80
2018-12-16T01:30:38.886Z,20.20
2018-12-16T01:31:38.968Z,21.50
2018-12-16T01:32:39.056Z,20.40
2018-12-16T01:33:39.140Z,24.10
2018-12-16T01:34:39.226Z,22.00
2018-12-16T01:35:39.321Z,20.40
2018-12-16T01:36:39.391Z,19.00
2018-12-16T01:37:39.475Z,18.70
2018-12-16T01:38:39.559Z,20.80
2018-12-16T01:39:39.641Z,20.80
2018-12-16T01:40:39.730Z,19.40
2018-12-16T01:41:39.812Z,21.30
2018-12-16T01:42:39.895Z,18.10
2018-12-16T01:43:39.981Z,20.40
2018-12-16T01:44:40.066Z,21.00
2018-12-16T01:45:40.151Z,19.60
2018-12-16T01:46:40.234Z,21.50
2018-12-16T01:47:40.321Z,21.80
2018-12-16T01:48:40.407Z,19.90
2018-12-16T01:49:40.490Z,21.20
2018-12-16T01:50:40.575Z,20.70
2018-12-16T01:51:40.656Z,22.70
2018-12-16T01:52:40.739Z,20.20
2018-12-16T01:53:40.825Z,20.10
2018-12-16T01:54:40.910Z,19.70
2018-12-16T01:55:40.995Z,19.30
2018-12-16T01:56:41.081Z,21.00
2018-12-16T01:57:41.168Z,20.60
2018-12-16T01:58:41.250Z,21.40
2018-12-16T01:59:41.337Z,21.30
2018-12-16T02:00:41.422Z,20.60
2018-12-16T02:01:41.511Z,22.30
2018-12-16T02:02:41.595Z,22.30
2018-12-16T02:03:41.680Z,20.90
2018-12-16T02:04:41.765Z,22.50
2018-12-16T02:05:41.848Z,22.60
2018-12-16T02:06:41.935Z,21.70
2018-12-16T02:07:42.022Z,22.00
2018-12-16T02:08:42.106Z,23.20
2018-12-16T02:09:42.194Z,20.30
2018-12-16T02:10:42.278Z,21.50
2018-12-16T02:11:42.363Z,22.90
2018-12-16T02:12:42.452Z,22.40
2018-12-16T02:13:42.535Z,23.00
2018-12-16T02:14:42.620Z,25.00
2018-12-16T02:15:42.707Z,21.80
2018-12-16T02:16:42.788Z,23.00
2018-12-16T02:17:42.876Z,21.10
2018-12-16T02:18:42.962Z,22.30
2018-12-16T02:19:43.043Z,24.10
2018-12-16T02:20:43.129Z,23.30
2018-12-16T02:21:43.212Z,21.80
2018-12-16T02:22:43.296Z,21.20
2018-12-16T02:23:43.380Z,23.70
2018-12-16T02:24:43.465Z,24.10
2018-12-16T02:25:43.554Z,25.20
2018-12-16T02:26:43.647Z,23.60
2018-12-16T02:27:43.728Z,23.90
2018-12-16T02:28:43.812Z,23.90
2018-12-16T02:29:43.898Z,25.10
2018-12-16T02:30:43.984Z,25.20
2018-12-16T02:31:44.070Z,25.50
2018-12-16T02:32:44.155Z,25.50
2018-12-16T02:33:44.238Z,23.30
2018-12-16T02:34:44.327Z,24.70
2018-12-16T02:35:44.407Z,24.10
2018-12-16T02:36:44.494Z,23.70
2018-12-16T02:37:44.597Z,24.60
2018-12-16T02:38:44.662Z,21.90
2018-12-16T02:39:44.745Z,23.80
2018-12-16T02:40:44.832Z,21.70
2018-12-16T02:41:44.918Z,25.00
2018-12-16T02:42:45.007Z,23.50
2018-12-16T02:43:45.093Z,25.10
2018-12-16T02:44:45.179Z,23.90
2018-12-16T02:45:45.261Z,23.30
2018-12-16T02:46:45.348Z,22.80
2018-12-16T02:47:45.431Z,23.30
2018-12-16T02:48:45.517Z,25.00
2018-12-16T02:49:45.602Z,23.20
2018-12-16T02:50:45.693Z,23.10
2018-12-16T02:51:45.771Z,23.70
2018-12-16T02:52:45.854Z,23.00
2018-12-16T02:53:45.937Z,22.90
2018-12-16T02:54:46.026Z,24.60
2018-12-16T02:55:46.109Z,25.20
2018-12-16T02:56:46.208Z,23.30
2018-12-16T02:57:46.370Z,23.70
2018-12-16T02:58:46.369Z,22.50
2018-12-16T02:59:46.452Z,23.00
2018-12-16T03:00:46.549Z,23.90
2018-12-16T03:01:46.627Z,23.40
2018-12-16T03:02:46.712Z,22.10
2018-12-16T03:03:46.792Z,24.80
2018-12-16T03:04:46.877Z,23.00
2018-12-16T03:05:46.962Z,24.70
2018-12-16T03:06:47.052Z,22.80
2018-12-16T03:07:47.137Z,24.40
2018-12-16T03:08:47.222Z,23.50
2018-12-16T03:09:47.313Z,24.60
2018-12-16T03:10:47.395Z,24.20
2018-12-16T03:11:47.486Z,24.70
2018-12-16T03:12:47.574Z,25.40
2018-12-16T03:13:47.651Z,25.60
2018-12-16T03:14:47.737Z,25.50
2018-12-16T03:15:47.823Z,24.80
2018-12-16T03:16:47.913Z,23.40
2018-12-16T03:17:47.998Z,25.20
2018-12-16T03:18:48.083Z,24.00
2018-12-16T03:19:48.169Z,25.20
2018-12-16T03:20:48.256Z,24.20
2018-12-16T03:21:48.331Z,24.70
2018-12-16T03:22:48.421Z,26.10
2018-12-16T03:23:48.502Z,26.30
2018-12-16T03:24:48.593Z,23.50
2018-12-16T03:25:48.740Z,24.40
2018-12-16T03:26:48.760Z,23.60
2018-12-16T03:27:48.842Z,24.00
2018-12-16T03:28:48.933Z,26.20
2018-12-16T03:29:49.022Z,23.50
2018-12-16T03:30:49.119Z,23.90
2018-12-16T03:31:49.199Z,23.30
2018-12-16T03:32:49.279Z,23.00
2018-12-16T03:33:49.365Z,24.80
2018-12-16T03:34:49.453Z,24.20
2018-12-16T03:35:49.537Z,25.10
2018-12-16T03:36:49.619Z,25.70
2018-12-16T03:37:49.709Z,23.80
2018-12-16T03:38:49.793Z,24.80
2018-12-16T03:39:49.877Z,26.30
2018-12-16T03:40:49.966Z,24.10
2018-12-16T03:41:50.051Z,25.10
2018-12-16T03:42:50.137Z,24.70
2018-12-16T03:43:50.227Z,25.80
2018-12-16T03:44:50.308Z,25.40
2018-12-16T03:45:50.397Z,23.20
2018-12-16T03:46:50.481Z,25.60
2018-12-16T03:47:50.567Z,24.40
2018-12-16T03:48:50.686Z,24.80
2018-12-16T03:49:50.768Z,26.90
2018-12-16T03:50:50.857Z,24.90
2018-12-16T03:51:50.951Z,26.00
2018-12-16T03:52:51.031Z,26.00
2018-12-16T03:53:51.116Z,25.40
2018-12-16T03:54:51.202Z,27.90
2018-12-16T03:55:51.286Z,24.40
2018-12-16T03:56:51.372Z,26.70
2018-12-16T03:57:51.459Z,28.00
2018-12-16T03:58:51.546Z,26.10
2018-12-16T03:59:51.632Z,25.40
2018-12-16T04:00:51.716Z,26.30
2018-12-16T04:01:51.802Z,25.30
2018-12-16T04:02:51.888Z,27.40
2018-12-16T04:03:51.974Z,26.80
2018-12-16T04:04:52.060Z,25.50
2018-12-16T04:05:52.146Z,25.30
2018-12-16T04:06:52.229Z,25.70
2018-12-16T04:07:52.316Z,27.40
2018-12-16T04:08:52.401Z,26.00
2018-12-16T04:09:52.488Z,26.40
2018-12-16T04:10:52.575Z,27.90
2018-12-16T04:11:52.664Z,27.60
2018-12-16T04:12:52.751Z,31.40
2018-12-16T04:13:52.835Z,25.20
2018-12-16T04:14:52.919Z,26.80
2018-12-16T04:15:53.002Z,27.90
2018-12-16T04:16:53.090Z,28.80
2018-12-16T04:17:53.177Z,26.70
2018-12-16T04:18:53.260Z,27.70
2018-12-16T04:19:53.345Z,26.70
2018-12-16T04:20:53.436Z,27.80
2018-12-16T04:21:53.525Z,25.70
2018-12-16T04:22:53.608Z,27.20
2018-12-16T04:23:53.697Z,29.40
2018-12-16T04:24:53.782Z,26.60
2018-12-16T04:25:53.867Z,26.70
2018-12-16T04:26:53.955Z,26.50
2018-12-16T04:27:54.039Z,29.00
2018-12-16T04:28:54.123Z,26.50
2018-12-16T04:29:54.212Z,26.00
2018-12-16T04:30:54.317Z,28.10
2018-12-16T04:31:54.388Z,27.90
2018-12-16T04:32:54.473Z,26.00
2018-12-16T04:33:54.558Z,27.20
2018-12-16T04:34:54.644Z,26.60
2018-12-16T04:35:54.728Z,27.90
2018-12-16T04:36:54.813Z,27.30
2018-12-16T04:37:54.912Z,27.30
2018-12-16T04:38:54.985Z,26.20
2018-12-16T04:39:55.073Z,27.00
2018-12-16T04:40:55.153Z,27.60
2018-12-16T04:41:55.238Z,28.20
2018-12-16T04:42:55.323Z,26.80
2018-12-16T04:43:55.408Z,28.30
2018-12-16T04:44:55.496Z,29.90
2018-12-16T04:45:55.581Z,28.20
2018-12-16T04:46:55.663Z,25.60
2018-12-16T04:47:55.747Z,28.20
2018-12-16T04:48:55.833Z,27.00
2018-12-16T04:49:55.922Z,26.30
2018-12-16T04:50:56.003Z,28.30
2018-12-16T04:51:56.089Z,29.80
2018-12-16T04:52:56.176Z,28.00
2018-12-16T04:53:56.260Z,27.20
2018-12-16T04:54:56.345Z,28.00
2018-12-16T04:55:56.432Z,29.30
2018-12-16T04:56:56.517Z,29.50
2018-12-16T04:57:56.606Z,28.00
2018-12-16T04:58:56.698Z,27.90
2018-12-16T04:59:56.777Z,29.80
2018-12-16T05:00:56.864Z,28.30
2018-12-16T05:01:56.952Z,30.70
2018-12-16T05:02:57.036Z,30.40
2018-12-16T05:03:57.126Z,30.50
2018-12-16T05:04:57.212Z,28.80
2018-12-16T05:05:57.300Z,29.80
2018-12-16T05:06:57.387Z,31.50
2018-12-16T05:07:57.477Z,31.70
2018-12-16T05:08:57.557Z,31.50
2018-12-16T05:09:57.644Z,31.20
2018-12-16T05:10:57.732Z,29.50
2018-12-16T05:11:57.817Z,30.30
2018-12-16T05:12:57.905Z,29.90
2018-12-16T05:13:57.991Z,30.60
2018-12-16T05:14:58.149Z,31.30
2018-12-16T05:15:58.161Z,28.60
2018-12-16T05:16:58.247Z,30.10
2018-12-16T05:17:58.338Z,31.70
2018-12-16T05:18:58.421Z,30.40
2018-12-16T05:19:58.507Z,28.40
2018-12-16T05:20:58.594Z,29.60
2018-12-16T05:21:58.678Z,31.30
2018-12-16T05:22:58.767Z,29.40
2018-12-16T05:23:58.859Z,30.90
2018-12-16T05:24:58.943Z,31.20
2018-12-16T05:25:59.035Z,30.60
2018-12-16T05:26:59.115Z,30.70
2018-12-16T05:27:59.198Z,29.90
2018-12-16T05:28:59.284Z,29.30
2018-12-16T05:29:59.373Z,29.40
2018-12-16T05:30:59.457Z,27.70
2018-12-16T05:31:59.543Z,29.00
2018-12-16T05:32:59.629Z,31.20
2018-12-16T05:33:59.715Z,31.70
2018-12-16T05:34:59.819Z,28.20
2018-12-16T05:35:59.906Z,30.00
2018-12-16T05:36:59.990Z,29.70
2018-12-16T05:38:00.079Z,31.20
2018-12-16T05:39:00.166Z,29.00
2018-12-16T05:40:00.251Z,29.60
2018-12-16T05:41:00.336Z,26.20
2018-12-16T05:42:00.428Z,28.80
2018-12-16T05:43:00.509Z,30.50
2018-12-16T05:44:00.593Z,29.40
2018-12-16T05:45:00.686Z,30.80
2018-12-16T05:46:00.766Z,28.40
2018-12-16T05:47:00.850Z,30.10
2018-12-16T05:48:00.938Z,29.30
2018-12-16T05:49:01.022Z,30.90
2018-12-16T05:50:01.109Z,29.90
2018-12-16T05:51:01.194Z,29.50
2018-12-16T05:52:01.280Z,30.30
2018-12-16T05:53:01.365Z,28.00
2018-12-16T05:54:01.452Z,27.40
2018-12-16T05:55:01.540Z,29.60
2018-12-16T05:56:01.627Z,27.60
2018-12-16T05:57:01.713Z,27.20
2018-12-16T05:58:01.794Z,30.70
2018-12-16T05:59:01.879Z,27.90
2018-12-16T06:00:01.968Z,25.90
2018-12-16T06:01:02.051Z,29.20
2018-12-16T06:02:02.139Z,26.80
2018-12-16T06:03:02.224Z,27.40
2018-12-16T06:04:02.309Z,28.10
2018-12-16T06:05:02.396Z,26.90
2018-12-16T06:06:02.484Z,27.60
2018-12-16T06:07:02.570Z,30.40
2018-12-16T06:08:02.658Z,29.10
2018-12-16T06:09:02.744Z,27.00
2018-12-16T06:10:02.833Z,27.40
2018-12-16T06:11:02.915Z,27.90
2018-12-16T06:12:03.010Z,30.20
2018-12-16T06:13:03.087Z,31.20
2018-12-16T06:14:03.173Z,28.90
2018-12-16T06:15:03.259Z,30.00
2018-12-16T06:16:03.347Z,27.50
2018-12-16T06:17:03.431Z,25.80
2018-12-16T06:18:03.526Z,27.10
2018-12-16T06:19:03.607Z,26.40
2018-12-16T06:20:03.690Z,28.00
2018-12-16T06:21:03.777Z,26.90
2018-12-16T06:22:03.862Z,28.30
2018-12-16T06:23:03.950Z,24.80
2018-12-16T06:24:04.042Z,27.40
2018-12-16T06:25:04.123Z,25.80
2018-12-16T06:26:04.206Z,27.30
2018-12-16T06:27:04.292Z,28.10
2018-12-16T06:28:04.378Z,26.70
2018-12-16T06:29:04.464Z,29.00
2018-12-16T06:30:04.554Z,30.00
2018-12-16T06:31:04.635Z,28.70
2018-12-16T06:32:04.729Z,27.00
2018-12-16T06:33:04.808Z,27.30
2018-12-16T06:34:04.895Z,28.30
2018-12-16T06:35:04.979Z,29.00
2018-12-16T06:36:05.062Z,26.10
2018-12-16T06:37:05.146Z,27.20
2018-12-16T06:38:05.246Z,30.20
2018-12-16T06:39:05.311Z,28.30
2018-12-16T06:40:05.397Z,26.40
2018-12-16T06:41:05.483Z,25.90
2018-12-16T06:42:05.564Z,26.90
2018-12-16T06:43:05.649Z,26.10
2018-12-16T06:44:05.735Z,26.50
2018-12-16T06:45:05.822Z,26.40
2018-12-16T06:46:05.909Z,26.20
2018-12-16T06:47:05.996Z,25.30
2018-12-16T06:48:06.081Z,24.10
2018-12-16T06:49:06.167Z,25.30
2018-12-16T06:50:06.255Z,27.20
2018-12-16T06:51:06.342Z,27.90
2018-12-16T06:52:06.425Z,27.40
2018-12-16T06:53:06.512Z,28.70
2018-12-16T06:54:06.591Z,27.70
2018-12-16T06:55:06.680Z,24.70
2018-12-16T06:56:06.853Z,28.50
2018-12-16T06:57:06.855Z,25.00
2018-12-16T06:58:06.943Z,24.10
2018-12-16T06:59:07.016Z,26.10
2018-12-16T07:00:07.102Z,26.10
2018-12-16T07:01:07.181Z,26.30
2018-12-16T07:02:07.268Z,25.40
2018-12-16T07:03:07.354Z,24.50
2018-12-16T07:04:07.439Z,26.00
2018-12-16T07:05:07.525Z,27.50
2018-12-16T07:06:07.609Z,28.00
2018-12-16T07:07:07.693Z,27.80
2018-12-16T07:08:07.778Z,26.50
2018-12-16T07:09:07.860Z,27.50
2018-12-16T07:10:07.942Z,26.70
2018-12-16T07:11:08.028Z,26.20
2018-12-16T07:12:08.112Z,28.40
2018-12-16T07:13:08.217Z,26.70
2018-12-16T07:14:08.286Z,23.70
2018-12-16T07:15:08.371Z,26.80
2018-12-16T07:16:08.478Z,25.30
2018-12-16T07:17:08.584Z,27.00
2018-12-16T07:18:08.630Z,25.90
2018-12-16T07:19:08.718Z,25.50
2018-12-16T07:20:08.798Z,26.10
2018-12-16T07:21:08.883Z,25.60
2018-12-16T07:22:08.969Z,26.00
2018-12-16T07:23:09.091Z,25.70
2018-12-16T07:24:09.585Z,26.30
2018-12-16T07:25:09.224Z,25.50
2018-12-16T07:26:09.312Z,28.10
2018-12-16T07:27:09.399Z,25.80
2018-12-16T07:28:09.487Z,26.30
2018-12-16T07:29:09.569Z,26.70
2018-12-16T07:30:09.659Z,26.10
2018-12-16T07:31:09.733Z,26.40
2018-12-16T07:32:09.819Z,26.60
2018-12-16T07:33:09.905Z,26.90
2018-12-16T07:34:10.002Z,27.00
2018-12-16T07:35:10.090Z,26.00
2018-12-16T07:36:10.179Z,25.30
2018-12-16T07:37:10.286Z,25.10
2018-12-16T07:38:10.351Z,25.40
2018-12-16T07:39:10.417Z,26.60
2018-12-16T07:40:10.510Z,26.50
2018-12-16T07:41:10.608Z,24.90
2018-12-16T07:42:10.709Z,24.90
2018-12-16T07:43:10.761Z,26.10
2018-12-16T07:44:10.856Z,24.90
2018-12-16T07:45:10.943Z,27.00
2018-12-16T07:46:11.034Z,27.90
2018-12-16T07:47:11.123Z,26.10
2018-12-16T07:48:11.210Z,27.50
2018-12-16T07:49:11.289Z,26.90
2018-12-16T07:50:11.376Z,28.00
2018-12-16T07:51:11.483Z,27.70
2018-12-16T07:52:11.545Z,25.50
2018-12-16T07:53:11.635Z,27.80
2018-12-16T07:54:16.045Z,27.30
2018-12-16T07:55:11.807Z,25.80
2018-12-16T07:56:11.893Z,25.90
2018-12-16T07:57:11.979Z,26.00
2018-12-16T07:58:12.084Z,26.70
2018-12-16T07:59:12.200Z,27.30
2018-12-16T08:00:12.245Z,25.00
2018-12-16T08:01:12.357Z,27.00
2018-12-16T08:02:12.417Z,27.20
2018-12-16T08:03:12.507Z,26.40
2018-12-16T08:04:12.593Z,26.90
2018-12-16T08:05:12.704Z,26.70
2018-12-16T08:06:12.767Z,27.30
2018-12-16T08:07:12.851Z,25.00
2018-12-16T08:08:12.938Z,28.70
2018-12-16T08:09:13.028Z,27.40
2018-12-16T08:10:13.112Z,25.80
2018-12-16T08:11:13.197Z,23.80
2018-12-16T08:12:13.303Z,26.60
2018-12-16T08:13:13.389Z,27.10
2018-12-16T08:14:13.475Z,25.50
2018-12-16T08:15:13.560Z,27.10
2018-12-16T08:16:13.648Z,26.90
2018-12-16T08:17:13.734Z,25.90
2018-12-16T08:18:13.819Z,24.50
2018-12-16T08:19:13.906Z,26.30
2018-12-16T08:20:13.994Z,27.10
2018-12-16T08:21:14.081Z,24.50
2018-12-16T08:22:14.164Z,27.00
2018-12-16T08:23:14.252Z,28.20
2018-12-16T08:24:14.340Z,26.90
2018-12-16T08:25:14.425Z,24.60
2018-12-16T08:26:14.512Z,27.10
2018-12-16T08:27:14.598Z,28.20
2018-12-16T08:28:14.684Z,26.40
2018-12-16T08:29:14.772Z,26.00
2018-12-16T08:30:14.859Z,28.60
2018-12-16T08:31:14.945Z,28.20
2018-12-16T08:32:15.031Z,28.50
2018-12-16T08:33:15.117Z,27.60
2018-12-16T08:34:15.203Z,28.50
2018-12-16T08:35:15.290Z,28.60
2018-12-16T08:36:15.375Z,27.70
2018-12-16T08:37:15.461Z,30.60
2018-12-16T08:38:15.546Z,30.70
2018-12-16T08:39:15.631Z,28.40
2018-12-16T08:40:15.717Z,32.70
2018-12-16T08:41:15.803Z,29.60
2018-12-16T08:42:15.889Z,31.70
2018-12-16T08:43:15.976Z,29.80
2018-12-16T08:44:16.060Z,28.90
2018-12-16T08:45:16.215Z,30.10
2018-12-16T08:46:16.243Z,33.00
2018-12-16T08:47:16.330Z,31.90
2018-12-16T08:48:16.404Z,32.40
2018-12-16T08:49:16.490Z,31.40
2018-12-16T08:50:16.709Z,32.00
2018-12-16T08:51:16.663Z,31.50
2018-12-16T08:52:16.749Z,31.30
2018-12-16T08:53:16.835Z,34.20
2018-12-16T08:54:16.922Z,32.60
2018-12-16T08:55:17.012Z,35.80
2018-12-16T08:56:17.097Z,34.60
2018-12-16T08:57:17.182Z,33.70
2018-12-16T08:58:17.269Z,33.70
2018-12-16T08:59:17.356Z,32.70
2018-12-16T09:00:17.442Z,35.20
2018-12-16T09:01:17.542Z,37.70
2018-12-16T09:02:17.618Z,30.90
2018-12-16T09:03:17.701Z,30.50
2018-12-16T09:04:17.792Z,32.30
2018-12-16T09:05:17.874Z,32.60
2018-12-16T09:06:17.961Z,33.60
2018-12-16T09:07:18.047Z,30.10
2018-12-16T09:08:18.139Z,31.10
2018-12-16T09:09:18.221Z,32.90
2018-12-16T09:10:18.307Z,33.10
2018-12-16T09:11:18.393Z,33.10
2018-12-16T09:12:19.463Z,32.00
2018-12-16T09:13:18.553Z,32.30
2018-12-16T09:14:18.661Z,31.20
2018-12-16T09:15:18.746Z,34.20
2018-12-16T09:16:18.832Z,35.30
2018-12-16T09:17:18.923Z,32.20
2018-12-16T09:18:19.005Z,36.00
2018-12-16T09:19:19.094Z,34.60
2018-12-16T09:20:19.179Z,30.80
2018-12-16T09:21:19.269Z,33.00
2018-12-16T09:22:19.361Z,31.60
2018-12-16T09:23:19.439Z,32.60
2018-12-16T09:24:19.528Z,32.40
2018-12-16T09:25:19.620Z,31.60
2018-12-16T09:26:19.711Z,31.90
2018-12-16T09:27:19.794Z,29.30
2018-12-16T09:28:19.881Z,30.60
2018-12-16T09:29:19.973Z,32.20
2018-12-16T09:30:20.059Z,33.00
2018-12-16T09:31:20.142Z,32.00
2018-12-16T09:32:20.231Z,31.90
2018-12-16T09:33:20.320Z,32.10
2018-12-16T09:34:20.405Z,30.60
2018-12-16T09:35:20.492Z,30.30
2018-12-16T09:36:20.579Z,33.70
2018-12-16T09:37:20.664Z,34.00
2018-12-16T09:38:20.755Z,32.40
2018-12-16T09:39:20.843Z,32.20
2018-12-16T09:40:20.929Z,31.20
2018-12-16T09:41:21.018Z,29.90
2018-12-16T09:42:21.102Z,31.90
2018-12-16T09:43:21.191Z,30.10
2018-12-16T09:44:21.278Z,33.10
2018-12-16T09:45:21.362Z,32.50
2018-12-16T09:46:21.448Z,34.70
2018-12-16T09:47:21.535Z,33.20
2018-12-16T09:48:21.621Z,33.00
2018-12-16T09:49:21.710Z,33.60
2018-12-16T09:50:21.794Z,29.10
2018-12-16T09:51:21.883Z,34.30
2018-12-16T09:52:23.658Z,33.40
2018-12-16T09:53:22.059Z,34.00
2018-12-16T09:54:22.145Z,30.40
2018-12-16T09:55:22.231Z,32.50
2018-12-16T09:56:22.310Z,34.30
2018-12-16T09:57:22.403Z,35.50
2018-12-16T09:58:22.484Z,33.50
2018-12-16T09:59:22.571Z,33.70
2018-12-16T10:00:22.662Z,32.40
2018-12-16T10:01:22.747Z,32.10
2018-12-16T10:02:22.837Z,33.10
2018-12-16T10:03:22.922Z,32.40
2018-12-16T10:04:23.018Z,33.10
2018-12-16T10:05:23.096Z,32.70
2018-12-16T10:06:23.181Z,30.90
2018-12-16T10:07:23.270Z,31.40
2018-12-16T10:08:23.345Z,33.90
2018-12-16T10:09:23.445Z,30.80
2018-12-16T10:10:23.529Z,31.90
2018-12-16T10:11:23.616Z,31.40
2018-12-16T10:12:23.708Z,31.50
2018-12-16T10:13:23.791Z,33.50
2018-12-16T10:14:23.878Z,31.50
2018-12-16T10:15:23.954Z,29.50
2018-12-16T10:16:24.037Z,33.40
2018-12-16T10:17:24.124Z,30.00
2018-12-16T10:18:24.213Z,30.40
2018-12-16T10:19:24.298Z,30.70
2018-12-16T10:20:24.386Z,29.40
2018-12-16T10:21:24.472Z,32.10
2018-12-16T10:22:24.560Z,32.90
2018-12-16T10:23:24.647Z,31.20
2018-12-16T10:24:24.736Z,33.80
2018-12-16T10:25:24.822Z,30.80
2018-12-16T10:26:24.909Z,29.70
2018-12-16T10:27:24.997Z,32.00
2018-12-16T10:28:25.085Z,30.90
2018-12-16T10:29:25.171Z,31.00
2018-12-16T10:30:25.257Z,30.50
2018-12-16T10:31:25.344Z,30.70
2018-12-16T10:32:25.449Z,31.90
2018-12-16T10:33:25.535Z,29.00
2018-12-16T10:34:25.624Z,32.10
2018-12-16T10:35:25.711Z,32.50
2018-12-16T10:36:25.796Z,33.50
2018-12-16T10:37:25.882Z,32.00
2018-12-16T10:38:25.970Z,34.50
2018-12-16T10:39:26.056Z,35.50
2018-12-16T10:40:26.146Z,31.50
2018-12-16T10:41:26.231Z,33.60
2018-12-16T10:42:26.314Z,30.50
2018-12-16T10:43:26.401Z,30.00
2018-12-16T10:44:26.488Z,30.40
2018-12-16T10:45:26.576Z,30.90
2018-12-16T10:46:26.662Z,32.00
2018-12-16T10:47:26.752Z,31.60
2018-12-16T10:48:26.835Z,33.10
2018-12-16T10:49:26.922Z,32.20
2018-12-16T10:50:27.010Z,32.00
2018-12-16T10:51:27.098Z,32.30
2018-12-16T10:52:27.186Z,31.30
2018-12-16T10:53:27.267Z,31.20
2018-12-16T10:54:27.363Z,34.70
2018-12-16T10:55:27.449Z,32.90
2018-12-16T10:56:27.535Z,32.90
2018-12-16T10:57:27.625Z,29.70
2018-12-16T10:58:27.712Z,33.40
2018-12-16T10:59:27.799Z,30.70
2018-12-16T11:00:27.885Z,33.20
2018-12-16T11:01:27.972Z,35.50
2018-12-16T11:02:28.060Z,33.10
2018-12-16T11:03:28.187Z,32.70
2018-12-16T11:04:28.233Z,33.00
2018-12-16T11:05:28.342Z,33.70
2018-12-16T11:06:28.429Z,33.00
2018-12-16T11:07:28.517Z,29.60
2018-12-16T11:08:28.603Z,35.00
2018-12-16T11:09:28.694Z,32.60
2018-12-16T11:10:28.780Z,32.50
2018-12-16T11:11:28.851Z,34.80
2018-12-16T11:12:28.941Z,30.20
2018-12-16T11:13:29.014Z,32.60
2018-12-16T11:14:29.100Z,30.50
2018-12-16T11:15:29.188Z,29.00
2018-12-16T11:16:29.274Z,31.70
2018-12-16T11:17:29.370Z,31.20
2018-12-16T11:18:29.454Z,32.20
2018-12-16T11:19:29.542Z,32.20
2018-12-16T11:20:29.629Z,31.50
2018-12-16T11:21:29.713Z,33.30
2018-12-16T11:22:29.796Z,32.50
2018-12-16T11:23:29.889Z,32.00
2018-12-16T11:24:29.976Z,32.10
2018-12-16T11:25:30.064Z,32.60
2018-12-16T11:26:30.147Z,32.80
2018-12-16T11:27:30.235Z,34.00
2018-12-16T11:28:30.317Z,31.70
2018-12-16T11:29:30.406Z,31.90
2018-12-16T11:30:30.494Z,32.20
2018-12-16T11:31:30.583Z,33.30
2018-12-16T11:32:30.666Z,34.30
2018-12-16T11:33:30.752Z,34.10
2018-12-16T11:34:30.840Z,33.00
2018-12-16T11:35:30.928Z,34.40
2018-12-16T11:36:31.014Z,36.90
2018-12-16T11:37:31.100Z,32.60
2018-12-16T11:38:31.189Z,32.10
2018-12-16T11:39:31.274Z,32.50
2018-12-16T11:40:31.362Z,34.30
2018-12-16T11:41:31.452Z,30.40
2018-12-16T11:42:31.535Z,31.50
2018-12-16T11:43:31.624Z,30.60
2018-12-16T11:44:31.711Z,33.20
2018-12-16T11:45:31.812Z,30.40
2018-12-16T11:46:31.886Z,35.80
2018-12-16T11:47:31.973Z,30.50
2018-12-16T11:48:32.061Z,35.50
2018-12-16T11:49:32.148Z,31.30
2018-12-16T11:50:32.310Z,29.00
2018-12-16T11:51:32.323Z,30.50
2018-12-16T11:52:32.414Z,30.30
2018-12-16T11:53:32.500Z,29.90
2018-12-16T11:54:32.586Z,37.90
2018-12-16T11:55:32.674Z,33.20
2018-12-16T11:56:32.762Z,34.90
2018-12-16T11:57:32.850Z,34.70
2018-12-16T11:58:32.938Z,32.70
2018-12-16T11:59:33.025Z,31.10
2018-12-16T12:00:33.109Z,33.40
2018-12-16T12:01:33.198Z,34.10
2018-12-16T12:02:33.284Z,34.00
2018-12-16T12:03:33.375Z,30.70
2018-12-16T12:04:33.460Z,30.30
2018-12-16T12:05:33.547Z,31.10
2018-12-16T12:06:33.655Z,33.80
2018-12-16T12:07:33.740Z,29.50
2018-12-16T12:08:33.828Z,30.80
2018-12-16T12:09:33.914Z,32.60
2018-12-16T12:10:34.001Z,28.50
2018-12-16T12:11:34.088Z,31.40
2018-12-16T12:12:34.177Z,29.90
2018-12-16T12:13:34.266Z,34.10
2018-12-16T12:14:34.350Z,30.00
2018-12-16T12:15:34.436Z,29.40
2018-12-16T12:16:34.525Z,33.30
2018-12-16T12:17:34.596Z,28.20
2018-12-16T12:18:34.712Z,27.60
2018-12-16T12:19:34.771Z,33.00
2018-12-16T12:20:34.861Z,31.10
2018-12-16T12:21:34.943Z,32.10
2018-12-16T12:22:35.032Z,32.60
2018-12-16T12:23:35.117Z,33.80
2018-12-16T12:24:35.205Z,30.30
2018-12-16T12:25:35.300Z,29.30
2018-12-16T12:26:35.382Z,32.40
2018-12-16T12:27:35.468Z,31.30
2018-12-16T12:28:35.555Z,30.50
2018-12-16T12:29:35.644Z,31.80
2018-12-16T12:30:35.731Z,29.50
2018-12-16T12:31:35.818Z,32.60
2018-12-16T12:32:35.904Z,29.60
2018-12-16T12:33:35.994Z,34.70
2018-12-16T12:34:36.080Z,32.60
2018-12-16T12:35:36.166Z,30.00
2018-12-16T12:36:36.254Z,33.00
2018-12-16T12:37:36.335Z,31.30
2018-12-16T12:38:36.427Z,32.10
2018-12-16T12:39:36.515Z,41.30
2018-12-16T12:40:36.604Z,32.70
2018-12-16T12:41:36.689Z,34.50
2018-12-16T12:42:36.778Z,32.60
2018-12-16T12:43:36.865Z,31.10
2018-12-16T12:44:36.954Z,31.60
2018-12-16T12:45:37.046Z,31.20
2018-12-16T12:46:37.128Z,30.70
2018-12-16T12:47:37.215Z,31.60
2018-12-16T12:48:37.305Z,36.10
2018-12-16T12:49:37.390Z,27.20
2018-12-16T12:50:37.479Z,35.70
2018-12-16T12:51:37.564Z,31.10
2018-12-16T12:52:37.653Z,33.00
2018-12-16T12:53:37.739Z,31.70